createdAt,value
2019-04-29T00:00:30.224Z,0.00
2019-04-29T00:01:30.244Z,0.00
2019-04-29T00:02:30.268Z,0.00
2019-04-29T00:03:30.294Z,0.00
2019-04-29T00:04:30.322Z,0.00
2019-04-29T00:05:30.342Z,0.00
2019-04-29T00:06:30.367Z,0.00
2019-04-29T00:07:30.390Z,0.00
2019-04-29T00:08:30.421Z,0.00
2019-04-29T00:09:31.071Z,0.00
2019-04-29T00:10:30.463Z,0.00
2019-04-29T00:11:30.493Z,0.00
2019-04-29T00:12:30.520Z,0.00
2019-04-29T00:13:30.539Z,0.00
2019-04-29T00:14:30.566Z,0.00
2019-04-29T00:15:30.595Z,0.00
2019-04-29T00:16:30.616Z,0.00
2019-04-29T00:17:30.638Z,0.00
2019-04-29T00:18:30.663Z,0.00
2019-04-29T00:19:30.690Z,0.00
2019-04-29T00:20:30.710Z,0.00
2019-04-29T00:21:30.740Z,0.00
2019-04-29T00:22:30.759Z,0.00
2019-04-29T00:23:30.786Z,0.00
2019-04-29T00:24:30.813Z,0.00
2019-04-29T00:25:30.836Z,0.00
2019-04-29T00:26:30.858Z,0.00
2019-04-29T00:27:30.888Z,0.00
2019-04-29T00:28:30.911Z,0.00
2019-04-29T00:29:30.933Z,0.00
2019-04-29T00:30:30.963Z,0.00
2019-04-29T00:31:30.996Z,0.00
2019-04-29T00:32:31.003Z,0.00
2019-04-29T00:33:31.030Z,0.00
2019-04-29T00:34:31.062Z,0.00
2019-04-29T00:35:31.082Z,0.00
2019-04-29T00:36:31.103Z,0.00
2019-04-29T00:37:31.126Z,0.00
2019-04-29T00:38:31.153Z,0.00
2019-04-29T00:39:31.179Z,0.00
2019-04-29T00:40:31.209Z,0.00
2019-04-29T00:41:31.227Z,0.00
2019-04-29T00:42:31.252Z,0.00
2019-04-29T00:43:31.280Z,0.00
2019-04-29T00:44:31.302Z,0.00
2019-04-29T00:45:31.329Z,0.00
2019-04-29T00:46:31.358Z,0.00
2019-04-29T00:47:31.373Z,0.00
2019-04-29T00:48:31.396Z,0.00
2019-04-29T00:49:31.423Z,0.00
2019-04-29T00:50:31.453Z,0.00
2019-04-29T00:51:31.474Z,0.00
2019-04-29T00:52:31.503Z,0.00
2019-04-29T00:53:31.523Z,0.00
2019-04-29T00:54:31.545Z,0.00
2019-04-29T00:55:31.643Z,0.00
2019-04-29T00:56:31.595Z,0.00
2019-04-29T00:57:31.630Z,0.00
2019-04-29T00:58:31.649Z,0.00
2019-04-29T00:59:31.674Z,0.00
2019-04-29T01:00:31.692Z,0.00
2019-04-29T01:01:31.721Z,0.00
2019-04-29T01:02:31.746Z,0.00
2019-04-29T01:03:31.771Z,0.00
2019-04-29T01:04:31.790Z,0.00
2019-04-29T01:05:31.816Z,0.00
2019-04-29T01:06:31.842Z,0.00
2019-04-29T01:07:31.867Z,0.00
2019-04-29T01:08:31.892Z,0.00
2019-04-29T01:09:31.922Z,0.00
2019-04-29T01:10:31.944Z,0.00
2019-04-29T01:11:31.972Z,0.00
2019-04-29T01:12:31.994Z,0.00
2019-04-29T01:13:32.008Z,0.00
2019-04-29T01:14:32.039Z,0.00
2019-04-29T01:15:32.061Z,0.00
2019-04-29T01:16:32.085Z,0.00
2019-04-29T01:17:32.109Z,0.00
2019-04-29T01:18:32.136Z,0.00
2019-04-29T01:19:32.159Z,0.00
2019-04-29T01:20:32.180Z,0.00
2019-04-29T01:21:32.207Z,0.00
2019-04-29T01:22:32.237Z,0.00
2019-04-29T01:23:32.260Z,0.00
2019-04-29T01:24:32.285Z,0.00
2019-04-29T01:25:32.302Z,0.00
2019-04-29T01:26:32.329Z,0.00
2019-04-29T01:27:32.359Z,0.00
2019-04-29T01:28:32.388Z,0.00
2019-04-29T01:29:32.415Z,0.00
2019-04-29T01:30:32.429Z,0.00
2019-04-29T01:31:32.460Z,0.00
2019-04-29T01:32:32.479Z,0.00
2019-04-29T01:33:32.498Z,0.00
2019-04-29T01:34:32.524Z,0.00
2019-04-29T01:35:32.546Z,0.00
2019-04-29T01:36:32.573Z,0.00
2019-04-29T01:37:32.598Z,0.00
2019-04-29T01:38:32.625Z,0.00
2019-04-29T01:39:32.668Z,0.00
2019-04-29T01:40:32.668Z,0.00
2019-04-29T01:41:32.698Z,0.00
2019-04-29T01:42:32.718Z,0.00
2019-04-29T01:43:32.741Z,0.00
2019-04-29T01:44:32.788Z,0.00
2019-04-29T01:45:32.789Z,0.00
2019-04-29T01:46:32.843Z,0.00
2019-04-29T01:47:32.840Z,0.00
2019-04-29T01:48:32.868Z,0.00
2019-04-29T01:49:32.891Z,0.00
2019-04-29T01:50:32.911Z,0.00
2019-04-29T01:51:32.940Z,0.00
2019-04-29T01:52:32.962Z,0.00
2019-04-29T01:53:32.990Z,0.00
2019-04-29T01:54:33.008Z,0.00
2019-04-29T01:55:33.036Z,0.00
2019-04-29T01:56:33.063Z,0.00
2019-04-29T01:57:33.080Z,0.00
2019-04-29T01:58:33.112Z,0.00
2019-04-29T01:59:33.131Z,0.00
2019-04-29T02:00:33.156Z,0.00
2019-04-29T02:01:33.184Z,0.00
2019-04-29T02:02:33.207Z,0.00
2019-04-29T02:03:33.231Z,0.00
2019-04-29T02:04:33.256Z,0.00
2019-04-29T02:05:33.281Z,0.00
2019-04-29T02:06:33.301Z,0.00
2019-04-29T02:07:33.323Z,0.00
2019-04-29T02:08:33.348Z,0.00
2019-04-29T02:09:33.374Z,0.00
2019-04-29T02:10:33.404Z,0.00
2019-04-29T02:11:33.422Z,0.00
2019-04-29T02:12:33.451Z,0.00
2019-04-29T02:13:33.468Z,0.00
2019-04-29T02:14:33.499Z,0.00
2019-04-29T02:15:33.517Z,0.00
2019-04-29T02:16:33.548Z,0.00
2019-04-29T02:17:33.573Z,0.00
2019-04-29T02:18:33.596Z,0.00
2019-04-29T02:19:33.620Z,0.00
2019-04-29T02:20:33.638Z,0.00
2019-04-29T02:21:33.668Z,0.00
2019-04-29T02:22:33.699Z,0.00
2019-04-29T02:23:33.720Z,0.00
2019-04-29T02:24:33.741Z,0.00
2019-04-29T02:25:33.762Z,0.00
2019-04-29T02:26:33.782Z,0.00
2019-04-29T02:27:33.815Z,0.00
2019-04-29T02:28:33.842Z,0.00
2019-04-29T02:29:33.860Z,0.00
2019-04-29T02:30:33.894Z,0.00
2019-04-29T02:31:33.909Z,0.00
2019-04-29T02:32:33.928Z,0.00
2019-04-29T02:33:33.959Z,0.00
2019-04-29T02:34:33.979Z,0.00
2019-04-29T02:35:34.001Z,0.00
2019-04-29T02:36:34.030Z,0.00
2019-04-29T02:37:34.055Z,0.00
2019-04-29T02:38:34.084Z,0.00
2019-04-29T02:39:34.101Z,0.00
2019-04-29T02:40:34.131Z,0.00
2019-04-29T02:41:34.151Z,0.00
2019-04-29T02:42:34.170Z,0.00
2019-04-29T02:43:34.202Z,0.00
2019-04-29T02:44:34.224Z,0.00
2019-04-29T02:45:34.244Z,0.00
2019-04-29T02:46:34.270Z,0.00
2019-04-29T02:47:34.294Z,0.00
2019-04-29T02:48:35.076Z,0.00
2019-04-29T02:49:34.338Z,0.00
2019-04-29T02:50:34.363Z,0.00
2019-04-29T02:51:34.386Z,0.00
2019-04-29T02:52:34.419Z,0.00
2019-04-29T02:53:34.438Z,0.00
2019-04-29T02:54:34.459Z,0.00
2019-04-29T02:55:34.501Z,0.00
2019-04-29T02:56:34.508Z,0.00
2019-04-29T02:57:34.530Z,0.00
2019-04-29T02:58:34.562Z,0.00
2019-04-29T02:59:34.589Z,0.00
2019-04-29T03:00:34.605Z,0.00
2019-04-29T03:01:34.689Z,0.00
2019-04-29T03:02:34.655Z,0.00
2019-04-29T03:03:34.684Z,0.00
2019-04-29T03:04:34.702Z,0.00
2019-04-29T03:05:34.734Z,0.00
2019-04-29T03:06:34.756Z,0.00
2019-04-29T03:07:34.779Z,0.00
2019-04-29T03:08:34.803Z,0.00
2019-04-29T03:09:34.826Z,0.00
2019-04-29T03:10:34.856Z,0.00
2019-04-29T03:11:34.872Z,0.00
2019-04-29T03:12:34.903Z,0.00
2019-04-29T03:13:34.925Z,0.00
2019-04-29T03:14:34.947Z,0.00
2019-04-29T03:15:34.966Z,0.00
2019-04-29T03:16:34.993Z,0.00
2019-04-29T03:17:35.018Z,0.00
2019-04-29T03:18:35.037Z,0.00
2019-04-29T03:19:35.065Z,0.00
2019-04-29T03:20:35.092Z,0.00
2019-04-29T03:21:35.125Z,0.00
2019-04-29T03:22:35.143Z,0.00
2019-04-29T03:23:35.164Z,0.00
2019-04-29T03:24:35.184Z,0.00
2019-04-29T03:25:35.204Z,0.00
2019-04-29T03:26:35.232Z,0.00
2019-04-29T03:27:35.256Z,0.00
2019-04-29T03:28:35.282Z,0.00
2019-04-29T03:29:35.301Z,4.00
2019-04-29T03:30:35.334Z,4.00
2019-04-29T03:31:39.513Z,4.00
2019-04-29T03:32:35.373Z,4.00
2019-04-29T03:33:35.421Z,0.00
2019-04-29T03:34:35.420Z,4.00
2019-04-29T03:35:35.450Z,4.00
2019-04-29T03:36:35.475Z,4.00
2019-04-29T03:37:35.518Z,4.00
2019-04-29T03:38:35.524Z,8.00
2019-04-29T03:39:35.543Z,8.00
2019-04-29T03:40:35.574Z,8.00
2019-04-29T03:41:35.592Z,12.00
2019-04-29T03:42:35.710Z,12.00
2019-04-29T03:43:35.637Z,12.00
2019-04-29T03:44:35.666Z,12.00
2019-04-29T03:45:35.689Z,16.00
2019-04-29T03:46:35.714Z,20.00
2019-04-29T03:47:35.731Z,24.00
2019-04-29T03:48:35.764Z,24.00
2019-04-29T03:49:35.781Z,32.00
2019-04-29T03:50:35.806Z,36.00
2019-04-29T03:51:35.829Z,40.00
2019-04-29T03:52:35.858Z,48.00
2019-04-29T03:53:35.875Z,56.00
2019-04-29T03:54:35.908Z,60.00
2019-04-29T03:55:39.763Z,68.00
2019-04-29T03:56:35.954Z,76.00
2019-04-29T03:57:35.980Z,84.00
2019-04-29T03:58:36.063Z,92.00
2019-04-29T03:59:36.026Z,104.00
2019-04-29T04:00:36.049Z,112.00
2019-04-29T04:01:36.077Z,124.00
2019-04-29T04:02:36.097Z,136.00
2019-04-29T04:03:36.116Z,148.00
2019-04-29T04:04:36.139Z,164.00
2019-04-29T04:05:36.165Z,176.00
2019-04-29T04:06:36.192Z,192.00
2019-04-29T04:07:36.209Z,208.00
2019-04-29T04:08:36.235Z,224.00
2019-04-29T04:09:36.257Z,240.00
2019-04-29T04:10:36.301Z,264.00
2019-04-29T04:11:36.307Z,280.00
2019-04-29T04:12:36.335Z,304.00
2019-04-29T04:13:36.356Z,328.00
2019-04-29T04:14:36.376Z,356.00
2019-04-29T04:15:36.404Z,388.00
2019-04-29T04:16:36.430Z,420.00
2019-04-29T04:17:36.448Z,452.00
2019-04-29T04:18:36.480Z,484.00
2019-04-29T04:19:36.506Z,516.00
2019-04-29T04:20:36.528Z,552.00
2019-04-29T04:21:36.557Z,584.00
2019-04-29T04:22:36.567Z,620.00
2019-04-29T04:23:36.610Z,648.00
2019-04-29T04:24:36.619Z,680.00
2019-04-29T04:25:36.640Z,700.00
2019-04-29T04:26:36.669Z,724.00
2019-04-29T04:27:36.691Z,748.00
2019-04-29T04:28:36.714Z,768.00
2019-04-29T04:29:36.736Z,792.00
2019-04-29T04:30:36.761Z,812.00
2019-04-29T04:31:36.793Z,836.00
2019-04-29T04:32:36.807Z,856.00
2019-04-29T04:33:36.826Z,888.00
2019-04-29T04:34:36.852Z,908.00
2019-04-29T04:35:36.882Z,940.00
2019-04-29T04:36:36.905Z,972.00
2019-04-29T04:37:36.928Z,1008.00
2019-04-29T04:38:36.955Z,1044.00
2019-04-29T04:39:36.972Z,1088.00
2019-04-29T04:40:37.004Z,1136.00
2019-04-29T04:41:37.022Z,1184.00
2019-04-29T04:42:37.045Z,1224.00
2019-04-29T04:43:37.081Z,1264.00
2019-04-29T04:44:37.092Z,1308.00
2019-04-29T04:45:37.191Z,1364.00
2019-04-29T04:46:37.139Z,1432.00
2019-04-29T04:47:37.161Z,1504.00
2019-04-29T04:48:37.189Z,1572.00
2019-04-29T04:49:37.207Z,1632.00
2019-04-29T04:50:37.233Z,1676.00
2019-04-29T04:51:37.260Z,1688.00
2019-04-29T04:52:37.284Z,1768.00
2019-04-29T04:53:37.311Z,1812.00
2019-04-29T04:54:37.331Z,1840.00
2019-04-29T04:55:37.357Z,1864.00
2019-04-29T04:56:37.380Z,1892.00
2019-04-29T04:57:37.402Z,1912.00
2019-04-29T04:58:37.424Z,1920.00
2019-04-29T04:59:37.450Z,1948.00
2019-04-29T05:00:37.471Z,1968.00
2019-04-29T05:01:37.494Z,2008.00
2019-04-29T05:02:37.521Z,2048.00
2019-04-29T05:03:37.548Z,2088.00
2019-04-29T05:04:37.569Z,2116.00
2019-04-29T05:05:37.591Z,2152.00
2019-04-29T05:06:37.616Z,2192.00
2019-04-29T05:07:37.642Z,2232.00
2019-04-29T05:08:37.712Z,2292.00
2019-04-29T05:09:37.691Z,2368.00
2019-04-29T05:10:37.716Z,2448.00
2019-04-29T05:11:37.792Z,2524.00
2019-04-29T05:12:37.764Z,2604.00
2019-04-29T05:13:37.788Z,2680.00
2019-04-29T05:14:37.809Z,2752.00
2019-04-29T05:15:37.837Z,2808.00
2019-04-29T05:16:37.862Z,2856.00
2019-04-29T05:17:37.882Z,2900.00
2019-04-29T05:18:37.906Z,2940.00
2019-04-29T05:19:37.933Z,2968.00
2019-04-29T05:20:37.956Z,2992.00
2019-04-29T05:21:37.981Z,3068.00
2019-04-29T05:22:38.004Z,3152.00
2019-04-29T05:23:38.024Z,3260.00
2019-04-29T05:24:38.051Z,3340.00
2019-04-29T05:25:38.076Z,3412.00
2019-04-29T05:26:38.145Z,3468.00
2019-04-29T05:27:38.124Z,3528.00
2019-04-29T05:28:38.145Z,3608.00
2019-04-29T05:29:38.186Z,3700.00
2019-04-29T05:30:38.197Z,3812.00
2019-04-29T05:31:38.217Z,3940.00
2019-04-29T05:32:38.249Z,4064.00
2019-04-29T05:33:38.471Z,4196.00
2019-04-29T05:34:41.682Z,4328.00
2019-04-29T05:35:40.267Z,4456.00
2019-04-29T05:36:39.347Z,4592.00
2019-04-29T05:37:38.366Z,4712.00
2019-04-29T05:38:38.388Z,4844.00
2019-04-29T05:39:38.413Z,4964.00
2019-04-29T05:40:38.439Z,5088.00
2019-04-29T05:41:38.462Z,5188.00
2019-04-29T05:42:38.484Z,5308.00
2019-04-29T05:43:38.508Z,5396.00
2019-04-29T05:44:38.536Z,5472.00
2019-04-29T05:45:41.549Z,5620.00
2019-04-29T05:46:38.586Z,5692.00
2019-04-29T05:47:38.614Z,5772.00
2019-04-29T05:48:38.632Z,5812.00
2019-04-29T05:49:41.645Z,5900.00
2019-04-29T05:50:38.680Z,6036.00
2019-04-29T05:51:38.704Z,6348.00
2019-04-29T05:52:39.547Z,6716.00
2019-04-29T05:53:38.759Z,7284.00
2019-04-29T05:54:38.778Z,7888.00
2019-04-29T05:55:38.803Z,8672.00
2019-04-29T05:56:38.832Z,9368.00
2019-04-29T05:57:38.860Z,10648.00
2019-04-29T05:58:39.573Z,11888.00
2019-04-29T05:59:38.911Z,12096.00
2019-04-29T06:00:38.929Z,11428.00
2019-04-29T06:01:42.742Z,9536.00
2019-04-29T06:02:39.051Z,8512.00
2019-04-29T06:03:39.851Z,8368.00
2019-04-29T06:04:39.025Z,8116.00
2019-04-29T06:05:39.052Z,8276.00
2019-04-29T06:06:39.079Z,8216.00
2019-04-29T06:07:39.106Z,8140.00
2019-04-29T06:08:39.558Z,8376.00
2019-04-29T06:09:39.158Z,10524.00
2019-04-29T06:10:41.950Z,11184.00
2019-04-29T06:11:39.214Z,10632.00
2019-04-29T06:12:39.227Z,10900.00
2019-04-29T06:13:39.271Z,11724.00
2019-04-29T06:14:39.277Z,12920.00
2019-04-29T06:15:39.320Z,14732.00
2019-04-29T06:16:39.332Z,17216.00
2019-04-29T06:17:39.948Z,19104.00
2019-04-29T06:18:41.060Z,19808.00
2019-04-29T06:19:41.036Z,24224.00
2019-04-29T06:20:39.433Z,27456.00
2019-04-29T06:21:39.458Z,18080.00
2019-04-29T06:22:41.896Z,15608.00
2019-04-29T06:23:39.511Z,18304.00
2019-04-29T06:24:41.051Z,18816.00
2019-04-29T06:25:39.558Z,18336.00
2019-04-29T06:26:39.586Z,17536.00
2019-04-29T06:27:39.614Z,17120.00
2019-04-29T06:28:39.633Z,16800.00
2019-04-29T06:29:39.657Z,16992.00
2019-04-29T06:30:40.708Z,17664.00
2019-04-29T06:31:39.746Z,18528.00
2019-04-29T06:32:39.737Z,18304.00
2019-04-29T06:33:39.764Z,18624.00
2019-04-29T06:34:40.389Z,19072.00
2019-04-29T06:35:43.421Z,19264.00
2019-04-29T06:36:39.847Z,19392.00
2019-04-29T06:37:39.875Z,19520.00
2019-04-29T06:38:39.902Z,20288.00
2019-04-29T06:39:39.931Z,25408.00
2019-04-29T06:40:39.959Z,31264.00
2019-04-29T06:41:40.521Z,31360.00
2019-04-29T06:42:40.005Z,29280.00
2019-04-29T06:43:40.036Z,30048.00
2019-04-29T06:44:40.066Z,30176.00
2019-04-29T06:45:40.094Z,33024.00
2019-04-29T06:46:40.117Z,32928.00
2019-04-29T06:47:40.154Z,32320.00
2019-04-29T06:48:40.177Z,33056.00
2019-04-29T06:49:40.204Z,35936.00
2019-04-29T06:50:40.230Z,36128.00
2019-04-29T06:51:40.262Z,37088.00
2019-04-29T06:52:40.288Z,40512.00
2019-04-29T06:53:40.317Z,41248.00
2019-04-29T06:54:40.345Z,40384.00
2019-04-29T06:55:40.371Z,37888.00
2019-04-29T06:56:40.445Z,42624.00
2019-04-29T06:57:40.423Z,41408.00
2019-04-29T06:58:40.458Z,41760.00
2019-04-29T06:59:42.941Z,40960.00
2019-04-29T07:00:40.517Z,37536.00
2019-04-29T07:01:40.539Z,39136.00
2019-04-29T07:02:40.573Z,37664.00
2019-04-29T07:03:40.611Z,40640.00
2019-04-29T07:04:40.632Z,46592.00
2019-04-29T07:05:40.666Z,43424.00
2019-04-29T07:06:40.697Z,29824.00
2019-04-29T07:07:40.720Z,27648.00
2019-04-29T07:08:40.742Z,26240.00
2019-04-29T07:09:40.770Z,26688.00
2019-04-29T07:10:40.798Z,27808.00
2019-04-29T07:11:40.831Z,26208.00
2019-04-29T07:12:42.794Z,22080.00
2019-04-29T07:13:40.884Z,18464.00
2019-04-29T07:14:40.913Z,16668.00
2019-04-29T07:15:43.528Z,18496.00
2019-04-29T07:16:40.970Z,20640.00
2019-04-29T07:17:42.746Z,20928.00
2019-04-29T07:18:48.171Z,24416.00
2019-04-29T07:19:41.062Z,27584.00
2019-04-29T07:20:41.084Z,28224.00
2019-04-29T07:21:41.780Z,30560.00
2019-04-29T07:22:41.181Z,22304.00
2019-04-29T07:23:41.174Z,24832.00
2019-04-29T07:24:41.200Z,37760.00
2019-04-29T07:25:41.227Z,40320.00
2019-04-29T07:26:41.256Z,35872.00
2019-04-29T07:27:44.160Z,38944.00
2019-04-29T07:28:41.320Z,40640.00
2019-04-29T07:29:41.346Z,55008.00
2019-04-29T07:31:00.445Z,41760.00
2019-04-29T07:31:41.405Z,39872.00
2019-04-29T07:32:42.140Z,37696.00
2019-04-29T07:33:41.457Z,30304.00
2019-04-29T07:34:41.493Z,36896.00
2019-04-29T07:35:42.881Z,27296.00
2019-04-29T07:36:41.547Z,33728.00
2019-04-29T07:37:41.573Z,39808.00
2019-04-29T07:38:42.166Z,33728.00
2019-04-29T07:39:41.631Z,37696.00
2019-04-29T07:40:43.311Z,43648.00
2019-04-29T07:41:41.699Z,46816.00
2019-04-29T07:42:41.717Z,63520.00
2019-04-29T07:43:43.000Z,68288.00
2019-04-29T07:44:44.300Z,66624.00
2019-04-29T07:45:44.310Z,70240.00
2019-04-29T07:46:56.097Z,62912.00
2019-04-29T07:47:55.421Z,70208.00
2019-04-29T07:48:43.734Z,71680.00
2019-04-29T07:49:41.927Z,71456.00
2019-04-29T07:50:41.951Z,70432.00
2019-04-29T07:51:41.981Z,70272.00
2019-04-29T07:52:45.707Z,69696.00
2019-04-29T07:53:45.411Z,71552.00
2019-04-29T07:54:42.068Z,70496.00
2019-04-29T07:55:42.098Z,68608.00
2019-04-29T07:56:43.500Z,70272.00
2019-04-29T07:57:42.164Z,67904.00
2019-04-29T07:58:42.189Z,66176.00
2019-04-29T07:59:42.232Z,64672.00
2019-04-29T08:00:44.701Z,65760.00
2019-04-29T08:01:42.289Z,67744.00
2019-04-29T08:02:42.316Z,64032.00
2019-04-29T08:03:42.351Z,61696.00
2019-04-29T08:04:42.379Z,61024.00
2019-04-29T08:05:42.406Z,65696.00
2019-04-29T08:06:44.425Z,64992.00
2019-04-29T08:07:42.471Z,65056.00
2019-04-29T08:08:54.292Z,69184.00
2019-04-29T08:09:44.221Z,69056.00
2019-04-29T08:10:55.533Z,69472.00
2019-04-29T08:11:42.597Z,68832.00
2019-04-29T08:12:42.635Z,66080.00
2019-04-29T08:13:42.667Z,65792.00
2019-04-29T08:14:42.696Z,66016.00
2019-04-29T08:15:43.594Z,67616.00
2019-04-29T08:16:42.766Z,64960.00
2019-04-29T08:17:42.791Z,62752.00
2019-04-29T08:18:43.147Z,62624.00
2019-04-29T08:19:42.872Z,62144.00
2019-04-29T08:20:42.896Z,61952.00
2019-04-29T08:21:45.472Z,60832.00
2019-04-29T08:23:42.989Z,60512.00
2019-04-29T08:24:45.844Z,62816.00
2019-04-29T08:25:43.053Z,63680.00
2019-04-29T08:26:47.272Z,65120.00
2019-04-29T08:27:43.827Z,65344.00
2019-04-29T08:28:43.155Z,65696.00
2019-04-29T08:29:43.192Z,66432.00
2019-04-29T08:30:45.790Z,72288.00
2019-04-29T08:31:43.253Z,72608.00
2019-04-29T08:32:43.288Z,71904.00
2019-04-29T08:33:46.660Z,70112.00
2019-04-29T08:34:43.357Z,70560.00
2019-04-29T08:35:46.603Z,72640.00
2019-04-29T08:36:43.417Z,73568.00
2019-04-29T08:37:43.450Z,71616.00
2019-04-29T08:38:43.485Z,66208.00
2019-04-29T08:39:43.510Z,70336.00
2019-04-29T08:40:45.227Z,76160.00
2019-04-29T08:41:43.585Z,78912.00
2019-04-29T08:42:46.815Z,80160.00
2019-04-29T08:43:43.648Z,74784.00
2019-04-29T08:44:43.685Z,19808.00
2019-04-29T08:45:43.709Z,83264.00
2019-04-29T08:46:49.970Z,83424.00
2019-04-29T08:47:43.781Z,80128.00
2019-04-29T08:48:45.923Z,65664.00
2019-04-29T08:49:43.845Z,67392.00
2019-04-29T08:50:43.880Z,30304.00
2019-04-29T08:51:43.905Z,22624.00
2019-04-29T08:52:43.939Z,72448.00
2019-04-29T08:53:43.974Z,47008.00
2019-04-29T08:54:44.011Z,56160.00
2019-04-29T08:55:44.038Z,49376.00
2019-04-29T08:57:01.857Z,52480.00
2019-04-29T08:57:44.111Z,73472.00
2019-04-29T08:58:49.027Z,85056.00
2019-04-29T08:59:44.172Z,85856.00
2019-04-29T09:00:44.208Z,83104.00
2019-04-29T09:01:44.241Z,87072.00
2019-04-29T09:02:47.146Z,31712.00
2019-04-29T09:03:44.309Z,24096.00
2019-04-29T09:04:53.506Z,52160.00
2019-04-29T09:05:46.129Z,27040.00
2019-04-29T09:06:44.403Z,82784.00
2019-04-29T09:07:44.433Z,82752.00
2019-04-29T09:08:54.675Z,31264.00
2019-04-29T09:09:44.505Z,74112.00
2019-04-29T09:10:44.535Z,23872.00
2019-04-29T09:11:47.868Z,72928.00
2019-04-29T09:12:44.606Z,73152.00
2019-04-29T09:13:44.638Z,84000.00
2019-04-29T09:14:44.671Z,86336.00
2019-04-29T09:15:44.706Z,70656.00
2019-04-29T09:16:44.734Z,55712.00
2019-04-29T09:17:44.766Z,44512.00
2019-04-29T09:18:44.801Z,48640.00
2019-04-29T09:19:44.837Z,39424.00
2019-04-29T09:20:44.872Z,44768.00
2019-04-29T09:21:44.900Z,32704.00
2019-04-29T09:22:44.937Z,29376.00
2019-04-29T09:23:44.966Z,38080.00
2019-04-29T09:24:48.216Z,69568.00
2019-04-29T09:25:45.034Z,22624.00
2019-04-29T09:26:45.064Z,21984.00
2019-04-29T09:27:46.160Z,17344.00
2019-04-29T09:28:45.129Z,17472.00
2019-04-29T09:29:46.489Z,18784.00
2019-04-29T09:30:45.193Z,20000.00
2019-04-29T09:31:46.741Z,43488.00
2019-04-29T09:32:45.263Z,27136.00
2019-04-29T09:33:49.073Z,20544.00
2019-04-29T09:34:45.329Z,19072.00
2019-04-29T09:35:45.355Z,22784.00
2019-04-29T09:36:48.347Z,45792.00
2019-04-29T09:37:45.417Z,47072.00
2019-04-29T09:38:45.447Z,43424.00
2019-04-29T09:39:45.484Z,41152.00
2019-04-29T09:40:45.814Z,55904.00
2019-04-29T09:41:45.547Z,44448.00
2019-04-29T09:42:50.049Z,59296.00
2019-04-29T09:43:45.603Z,75904.00
2019-04-29T09:44:45.644Z,69024.00
2019-04-29T09:45:45.667Z,35360.00
2019-04-29T09:46:45.707Z,85376.00
2019-04-29T09:47:45.728Z,39488.00
2019-04-29T09:48:45.762Z,43296.00
2019-04-29T09:49:45.796Z,40384.00
2019-04-29T09:50:45.829Z,66112.00
2019-04-29T09:51:45.853Z,29920.00
2019-04-29T09:52:45.889Z,30144.00
2019-04-29T09:53:45.924Z,32224.00
2019-04-29T09:54:45.950Z,29344.00
2019-04-29T09:55:45.981Z,31808.00
2019-04-29T09:56:46.013Z,28384.00
2019-04-29T09:57:46.049Z,27008.00
2019-04-29T09:58:46.082Z,31168.00
2019-04-29T09:59:46.111Z,29184.00
2019-04-29T10:00:46.140Z,27424.00
2019-04-29T10:01:46.171Z,30016.00
2019-04-29T10:02:46.203Z,29312.00
2019-04-29T10:03:46.231Z,29024.00
2019-04-29T10:04:56.361Z,27904.00
2019-04-29T10:05:46.299Z,27200.00
2019-04-29T10:06:46.324Z,29280.00
2019-04-29T10:07:46.359Z,31872.00
2019-04-29T10:08:46.389Z,30912.00
2019-04-29T10:09:57.150Z,33120.00
2019-04-29T10:10:46.457Z,26336.00
2019-04-29T10:11:46.481Z,29600.00
2019-04-29T10:12:46.512Z,28192.00
2019-04-29T10:13:46.545Z,26048.00
2019-04-29T10:14:46.571Z,24640.00
2019-04-29T10:15:46.608Z,23584.00
2019-04-29T10:16:46.632Z,22720.00
2019-04-29T10:17:50.822Z,22272.00
2019-04-29T10:18:46.695Z,22112.00
2019-04-29T10:19:46.728Z,22176.00
2019-04-29T10:20:46.753Z,22688.00
2019-04-29T10:21:46.787Z,23488.00
2019-04-29T10:22:50.262Z,25120.00
2019-04-29T10:23:46.850Z,25984.00
2019-04-29T10:24:46.872Z,24736.00
2019-04-29T10:25:46.905Z,24384.00
2019-04-29T10:26:46.938Z,23936.00
2019-04-29T10:27:46.969Z,23744.00
2019-04-29T10:28:46.992Z,23648.00
2019-04-29T10:29:50.691Z,23488.00
2019-04-29T10:30:47.055Z,23360.00
2019-04-29T10:31:47.187Z,22176.00
2019-04-29T10:32:47.112Z,21792.00
2019-04-29T10:33:50.315Z,21920.00
2019-04-29T10:34:47.179Z,22272.00
2019-04-29T10:35:47.200Z,23008.00
2019-04-29T10:36:47.240Z,23424.00
2019-04-29T10:37:47.266Z,22240.00
2019-04-29T10:38:47.295Z,22784.00
2019-04-29T10:39:47.325Z,23168.00
2019-04-29T10:40:47.353Z,24032.00
2019-04-29T10:41:47.380Z,25568.00
2019-04-29T10:42:47.415Z,26560.00
2019-04-29T10:43:49.400Z,27616.00
2019-04-29T10:44:47.466Z,37760.00
2019-04-29T10:45:47.501Z,30432.00
2019-04-29T10:46:47.531Z,29024.00
2019-04-29T10:47:47.561Z,29568.00
2019-04-29T10:48:47.586Z,38912.00
2019-04-29T10:49:49.668Z,30752.00
2019-04-29T10:50:52.005Z,29664.00
2019-04-29T10:51:47.674Z,29408.00
2019-04-29T10:52:47.709Z,28448.00
2019-04-29T10:53:51.128Z,29376.00
2019-04-29T10:54:51.136Z,33888.00
2019-04-29T10:55:47.790Z,29824.00
2019-04-29T10:56:47.823Z,29504.00
2019-04-29T10:57:49.783Z,32512.00
2019-04-29T10:58:47.885Z,34400.00
2019-04-29T10:59:50.215Z,31872.00
2019-04-29T11:00:47.944Z,34656.00
2019-04-29T11:02:00.674Z,40736.00
2019-04-29T11:02:49.350Z,33120.00
2019-04-29T11:03:48.031Z,31808.00
2019-04-29T11:04:48.065Z,36640.00
2019-04-29T11:05:59.901Z,33728.00
2019-04-29T11:06:48.119Z,30592.00
2019-04-29T11:07:48.153Z,32352.00
2019-04-29T11:08:48.187Z,32928.00
2019-04-29T11:09:50.869Z,31040.00
2019-04-29T11:10:48.244Z,28352.00
2019-04-29T11:11:48.272Z,29280.00
2019-04-29T11:12:48.304Z,27616.00
2019-04-29T11:13:50.514Z,40736.00
2019-04-29T11:14:48.360Z,28000.00
2019-04-29T11:15:49.369Z,25344.00
2019-04-29T11:16:48.416Z,25856.00
2019-04-29T11:17:58.412Z,29216.00
2019-04-29T11:18:48.483Z,24896.00
2019-04-29T11:19:48.513Z,24544.00
2019-04-29T11:20:48.854Z,24032.00
2019-04-29T11:21:48.567Z,26240.00
2019-04-29T11:22:48.613Z,27008.00
2019-04-29T11:23:50.571Z,26912.00
2019-04-29T11:24:48.660Z,26080.00
2019-04-29T11:25:51.366Z,30592.00
2019-04-29T11:26:48.730Z,33536.00
2019-04-29T11:27:48.751Z,32192.00
2019-04-29T11:28:51.140Z,32640.00
2019-04-29T11:29:48.827Z,35968.00
2019-04-29T11:30:49.687Z,41952.00
2019-04-29T11:31:53.436Z,50720.00
2019-04-29T11:32:48.899Z,55712.00
2019-04-29T11:33:48.932Z,64384.00
2019-04-29T11:34:53.083Z,63040.00
2019-04-29T11:35:48.990Z,31104.00
2019-04-29T11:36:49.018Z,56160.00
2019-04-29T11:37:50.025Z,28768.00
2019-04-29T11:38:49.092Z,27744.00
2019-04-29T11:39:50.315Z,24928.00
2019-04-29T11:40:49.142Z,28224.00
2019-04-29T11:41:50.103Z,22208.00
2019-04-29T11:42:49.199Z,23968.00
2019-04-29T11:43:51.138Z,19456.00
2019-04-29T11:44:49.268Z,18432.00
2019-04-29T11:45:49.290Z,29888.00
2019-04-29T11:46:50.615Z,32928.00
2019-04-29T11:47:49.356Z,100800.00
2019-04-29T11:48:49.385Z,80096.00
2019-04-29T11:49:49.420Z,53920.00
2019-04-29T11:50:52.918Z,39008.00
2019-04-29T11:52:08.539Z,32320.00
2019-04-29T11:52:49.510Z,21472.00
2019-04-29T11:53:49.540Z,20000.00
2019-04-29T11:54:49.565Z,23552.00
2019-04-29T11:55:52.396Z,20352.00
2019-04-29T11:56:49.628Z,28672.00
2019-04-29T11:57:49.661Z,25248.00
2019-04-29T11:58:49.688Z,23040.00
2019-04-29T11:59:49.729Z,25568.00
2019-04-29T12:00:51.997Z,25216.00
2019-04-29T12:01:51.839Z,25376.00
2019-04-29T12:02:49.816Z,29728.00
2019-04-29T12:03:51.317Z,23392.00
2019-04-29T12:04:49.874Z,23808.00
2019-04-29T12:05:49.908Z,26816.00
2019-04-29T12:06:51.192Z,24256.00
2019-04-29T12:07:49.966Z,22752.00
2019-04-29T12:08:53.170Z,26816.00
2019-04-29T12:09:50.028Z,24384.00
2019-04-29T12:11:06.221Z,21504.00
2019-04-29T12:11:50.098Z,24096.00
2019-04-29T12:12:50.276Z,26304.00
2019-04-29T12:13:50.155Z,26912.00
2019-04-29T12:14:50.182Z,22144.00
2019-04-29T12:15:50.327Z,23392.00
2019-04-29T12:16:50.245Z,21696.00
2019-04-29T12:17:50.279Z,22752.00